Terminal Aerodrome Forecast
Issued by NWS Grand Rapids, MI

Home | Current Version | Previous Version | Text Only | Print | Product List | Glossary On
Versions: 1 2 3 4 5 6 7 8 9 10 11 12 13 14 15 16 17 18 19 20
523
FTUS43 KGRR 211140
TAFGRR
TAF
KGRR 211140Z 2112/2212 16004KT 3SM BR OVC025
     FM211400 15004KT 3SM BR OVC015
     FM211800 16004KT 2SM BR OVC007
     FM220100 11005KT 4SM BR OVC005
     FM220300 11006KT 1/2SM DZ FG OVC003=

USA.gov is the U.S. government's official web portal to all federal, state and local government web resources and services.